TimeEST,TemperatureF,Dew PointF,Humidity,Sea Level PressureIn,VisibilityMPH,Wind Direction,Wind SpeedMPH,Gust SpeedMPH,PrecipitationIn,Events,Conditions,WindDirDegrees,DateUTC
12:53 AM,68.0,66.9,96,30.05,10.0,Calm,Calm,-,N/A,,Mostly Cloudy,0,2013-01-21 05:53:00
1:06 AM,68.0,66.2,94,30.05,10.0,NNW,3.5,-,N/A,,Overcast,340,2013-01-21 06:06:00
1:53 AM,69.1,66.0,90,30.04,10.0,NNE,5.8,-,N/A,,Scattered Clouds,20,2013-01-21 06:53:00
2:53 AM,68.0,66.0,93,30.03,10.0,Calm,Calm,-,N/A,,Mostly Cloudy,0,2013-01-21 07:53:00
3:53 AM,69.1,66.9,93,30.03,10.0,Calm,Calm,-,N/A,,Overcast,0,2013-01-21 08:53:00
4:53 AM,70.0,66.9,90,30.02,10.0,Calm,Calm,-,N/A,,Overcast,0,2013-01-21 09:53:00
5:53 AM,68.0,66.9,96,30.02,10.0,Calm,Calm,-,N/A,,Overcast,0,2013-01-21 10:53:00
6:05 AM,69.8,66.2,88,30.02,10.0,Calm,Calm,-,N/A,,Overcast,0,2013-01-21 11:05:00
6:17 AM,68.0,66.2,94,30.03,10.0,Calm,Calm,-,N/A,,Overcast,0,2013-01-21 11:17:00
6:27 AM,69.8,66.2,88,30.03,10.0,NNE,3.5,-,N/A,,Overcast,30,2013-01-21 11:27:00
6:53 AM,69.8,66.2,88,30.04,10.0,North,3.5,-,N/A,,Overcast,10,2013-01-21 11:53:00
7:53 AM,70.0,69.1,97,30.05,10.0,Calm,Calm,-,N/A,,Overcast,0,2013-01-21 12:53:00
8:53 AM,75.0,68.0,79,30.07,10.0,East,4.6,-,N/A,,Mostly Cloudy,80,2013-01-21 13:53:00
9:53 AM,78.1,66.9,68,30.08,10.0,ESE,5.8,-,N/A,,Partly Cloudy,110,2013-01-21 14:53:00
10:38 AM,78.8,66.2,65,30.08,10.0,SSE,4.6,-,N/A,,Mostly Cloudy,150,2013-01-21 15:38:00
10:53 AM,78.1,66.0,66,30.08,10.0,ESE,4.6,-,N/A,,Mostly Cloudy,110,2013-01-21 15:53:00
11:37 AM,78.8,66.2,65,30.07,10.0,ESE,5.8,-,N/A,,Mostly Cloudy,120,2013-01-21 16:37:00
11:53 AM,80.1,66.9,64,30.06,10.0,SSE,6.9,-,N/A,,Mostly Cloudy,160,2013-01-21 16:53:00
12:02 PM,80.6,66.2,61,30.06,10.0,Variable,4.6,-,N/A,,Mostly Cloudy,0,2013-01-21 17:02:00
12:09 PM,78.8,66.2,65,30.05,10.0,SE,5.8,-,N/A,,Mostly Cloudy,130,2013-01-21 17:09:00
12:39 PM,78.8,66.2,65,30.04,10.0,SSE,6.9,-,N/A,,Mostly Cloudy,160,2013-01-21 17:39:00
12:53 PM,80.1,66.9,64,30.03,10.0,SSE,4.6,-,N/A,,Overcast,150,2013-01-21 17:53:00
1:53 PM,77.0,66.9,71,30.00,8.0,South,5.8,-,0.02,Rain,Light Rain,180,2013-01-21 18:53:00
1:57 PM,75.2,66.2,73,30.00,1.8,WNW,3.5,-,0.07,Rain,Heavy Rain,300,2013-01-21 18:57:00
2:10 PM,73.4,68.0,83,30.00,3.0,SW,4.6,-,0.18,Rain,Light Rain,230,2013-01-21 19:10:00
2:53 PM,78.1,70.0,76,29.99,10.0,Variable,3.5,-,0.18,,Mostly Cloudy,0,2013-01-21 19:53:00
3:53 PM,80.1,66.9,64,29.99,10.0,WSW,9.2,-,N/A,,Scattered Clouds,240,2013-01-21 20:53:00
4:53 PM,77.0,66.9,71,29.99,10.0,West,13.8,-,N/A,,Scattered Clouds,270,2013-01-21 21:53:00
5:53 PM,73.0,66.0,79,30.01,10.0,West,9.2,-,N/A,,Mostly Cloudy,260,2013-01-21 22:53:00
6:53 PM,70.0,64.9,84,30.03,10.0,West,11.5,-,N/A,,Clear,270,2013-01-21 23:53:00
7:53 PM,68.0,64.9,90,30.04,10.0,West,6.9,-,N/A,,Clear,270,2013-01-22 00:53:00
8:53 PM,66.9,64.9,93,30.05,10.0,West,8.1,-,N/A,,Clear,280,2013-01-22 01:53:00
9:53 PM,66.0,64.0,93,30.05,10.0,WNW,8.1,-,N/A,,Clear,290,2013-01-22 02:53:00
10:53 PM,64.9,63.0,93,30.05,10.0,WNW,8.1,-,N/A,,Scattered Clouds,290,2013-01-22 03:53:00
11:53 PM,63.0,62.1,97,30.05,10.0,WNW,5.8,-,N/A,,Clear,290,2013-01-22 04:53:00